Time;durP1;ratioP1;P1;durP2;ratioP2;P2;SDS_P1;SDS_P2;PMS_P1;PMS_P2;Temp;Humidity;BMP_temperature;BMP_pressure;BME280_temperature;BME280_humidity;BME280_pressure;Samples;Min_cycle;Max_cycle;Signal;HPM_P1;HPM_P2
2022/06/04 00:00:23;;;;;;;5.30;1.75;;;20.60;99.90;;;;;;6202821;23;20099;-67
2022/06/04 00:02:49;;;;;;;2.28;1.70;;;20.60;99.90;;;;;;6203132;23;20009;-67
2022/06/04 00:05:28;;;;;;;3.78;1.83;;;20.70;99.90;;;;;;6203254;23;20449;-67
2022/06/04 00:07:56;;;;;;;3.55;2.00;;;20.70;99.90;;;;;;6207977;23;20001;-67
2022/06/04 00:16:02;;;;;;;1.98;1.67;;;20.70;99.90;;;;;;6206492;23;20020;-67
2022/06/04 00:18:27;;;;;;;1.95;1.65;;;20.60;99.90;;;;;;6202827;23;20013;-67
2022/06/04 00:20:54;;;;;;;5.60;2.20;;;20.70;99.90;;;;;;6207210;23;20146;-67
2022/06/04 00:23:21;;;;;;;2.97;1.80;;;20.60;99.90;;;;;;6206650;23;20009;-66
2022/06/04 00:25:49;;;;;;;4.15;1.80;;;20.60;99.90;;;;;;6205283;23;20008;-67
2022/06/04 00:28:17;;;;;;;6.25;2.03;;;20.60;99.90;;;;;;6203821;23;20094;-67
2022/06/04 00:30:43;;;;;;;3.88;2.15;;;20.60;99.90;;;;;;6205142;23;20155;-66
2022/06/04 00:33:09;;;;;;;1.90;1.80;;;20.60;99.90;;;;;;6206700;23;20013;-67
2022/06/04 00:35:35;;;;;;;4.28;2.60;;;20.50;99.90;;;;;;6204269;23;20016;-66
2022/06/04 00:38:03;;;;;;;2.50;2.30;;;20.40;99.90;;;;;;6206274;23;20334;-66
2022/06/04 00:40:31;;;;;;;3.72;2.10;;;20.40;99.90;;;;;;6202800;23;20009;-66
2022/06/04 00:42:58;;;;;;;2.03;1.83;;;20.30;99.90;;;;;;6207191;23;20005;-67
2022/06/04 00:45:36;;;;;;;2.08;1.85;;;20.30;99.90;;;;;;6176335;23;20095;-67
2022/06/04 00:48:06;;;;;;;2.97;1.90;;;20.30;99.90;;;;;;6204084;23;20015;-66
2022/06/04 00:50:34;;;;;;;3.60;2.28;;;20.30;99.90;;;;;;6203696;23;20084;-67
2022/06/04 00:53:05;;;;;;;1.67;1.55;;;20.20;99.90;;;;;;6206860;23;20353;-66
2022/06/04 00:55:59;;;;;;;3.85;2.10;;;20.20;99.90;;;;;;6203278;23;20008;-65
2022/06/04 00:58:28;;;;;;;3.08;1.67;;;20.10;99.90;;;;;;6204522;23;20028;-67
2022/06/04 01:01:00;;;;;;;4.97;1.80;;;20.10;99.90;;;;;;6203040;23;20062;-66
2022/06/04 01:03:49;;;;;;;1.45;1.35;;;20.10;99.90;;;;;;6177903;23;20644;-66
2022/06/04 01:06:28;;;;;;;2.42;1.40;;;20.20;99.90;;;;;;6204528;23;20062;-66
2022/06/04 01:09:12;;;;;;;2.85;1.60;;;20.20;99.90;;;;;;6204669;23;20465;-67
2022/06/04 01:12:32;;;;;;;5.22;2.00;;;20.30;99.90;;;;;;6203028;23;20032;-67
2022/06/04 01:15:19;;;;;;;2.45;1.92;;;20.30;99.90;;;;;;6141674;23;20031;-67
2022/06/04 01:18:02;;;;;;;2.95;1.55;;;20.40;99.90;;;;;;6202481;23;20660;-67
2022/06/04 01:20:47;;;;;;;2.25;1.30;;;20.40;99.90;;;;;;6214321;23;20023;-67
2022/06/04 01:23:31;;;;;;;1.80;1.55;;;20.40;99.90;;;;;;6235871;23;20074;-66
2022/06/04 01:26:38;;;;;;;3.08;1.60;;;20.50;99.90;;;;;;6235875;23;19996;-67
2022/06/04 01:29:11;;;;;;;2.85;1.63;;;20.50;99.90;;;;;;6100689;23;20802;-67
2022/06/04 01:32:21;;;;;;;3.33;1.95;;;20.50;99.90;;;;;;6237089;23;20006;-67
2022/06/04 01:35:08;;;;;;;3.08;1.70;;;20.50;99.90;;;;;;6084877;23;20022;-67
2022/06/04 01:37:55;;;;;;;3.60;1.67;;;20.50;99.90;;;;;;6083289;23;20022;-67
2022/06/04 01:43:16;;;;;;;3.58;1.77;;;20.40;99.90;;;;;;6232949;23;20081;-67
2022/06/04 01:45:44;;;;;;;3.30;1.60;;;20.40;99.90;;;;;;6235240;23;20004;-67
2022/06/04 01:48:12;;;;;;;2.25;1.67;;;20.40;99.90;;;;;;6235799;23;20004;-67
2022/06/04 01:50:46;;;;;;;4.30;1.40;;;20.30;99.90;;;;;;6236248;23;20090;-67
2022/06/04 01:53:14;;;;;;;2.35;1.50;;;20.30;99.90;;;;;;6234347;23;20016;-67
2022/06/04 01:55:47;;;;;;;3.03;1.75;;;20.30;99.90;;;;;;6235005;23;20421;-67
2022/06/04 01:58:21;;;;;;;2.13;1.63;;;20.30;99.90;;;;;;6235962;23;20000;-67
2022/06/04 02:01:03;;;;;;;6.15;1.70;;;20.30;99.90;;;;;;6230952;23;20022;-67
2022/06/04 02:03:35;;;;;;;;;;;20.20;99.90;;;;;;6235821;23;20011;-67
2022/06/04 02:06:15;;;;;;;3.38;1.75;;;20.20;99.90;;;;;;6232962;23;19903;-67
2022/06/04 02:08:53;;;;;;;6.07;2.00;;;20.20;99.90;;;;;;6233027;23;20004;-67
2022/06/04 02:11:21;;;;;;;5.55;1.77;;;20.10;99.90;;;;;;6231097;23;20003;-67
2022/06/04 02:13:49;;;;;;;3.80;1.50;;;20.20;99.90;;;;;;6234315;23;20027;-67
2022/06/04 02:16:20;;;;;;;3.10;1.80;;;20.20;99.90;;;;;;6233564;23;20007;-67
2022/06/04 02:18:47;;;;;;;2.63;1.85;;;20.20;99.90;;;;;;6234195;23;20039;-67
2022/06/04 02:21:14;;;;;;;2.40;1.75;;;20.10;99.90;;;;;;6233725;23;20074;-67
2022/06/04 02:23:40;;;;;;;4.20;1.67;;;20.10;99.90;;;;;;6233708;23;20087;-67
2022/06/04 02:26:05;;;;;;;3.08;1.90;;;20.10;99.90;;;;;;6232921;23;20159;-67
2022/06/04 02:28:31;;;;;;;3.03;1.73;;;20.00;99.90;;;;;;6232426;23;20166;-67
2022/06/04 02:31:21;;;;;;;3.58;2.10;;;20.00;99.90;;;;;;6234326;23;20211;-67
2022/06/04 02:33:55;;;;;;;4.45;1.65;;;20.00;99.90;;;;;;6235409;23;20043;-67
2022/06/04 02:36:41;;;;;;;2.47;1.70;;;20.00;99.90;;;;;;6233749;23;20438;-67
2022/06/04 02:39:09;;;;;;;4.25;2.00;;;19.90;99.90;;;;;;6233668;23;20206;-67
2022/06/04 02:41:43;;;;;;;1.95;1.75;;;19.80;99.90;;;;;;6231633;23;20083;-67
2022/06/04 02:44:17;;;;;;;4.28;1.98;;;19.80;99.90;;;;;;6231378;23;20062;-67
2022/06/04 02:47:02;;;;;;;2.63;2.42;;;19.80;99.90;;;;;;6234569;23;20091;-67
2022/06/04 02:49:36;;;;;;;6.93;2.60;;;19.80;99.90;;;;;;6235277;23;20334;-67
2022/06/04 02:52:03;;;;;;;4.00;2.53;;;19.80;99.90;;;;;;6207408;23;20019;-66
2022/06/04 02:54:32;;;;;;;6.30;2.95;;;19.80;99.90;;;;;;6232900;23;20023;-67
2022/06/04 02:57:00;;;;;;;9.55;3.60;;;19.80;99.90;;;;;;6233679;23;20058;-67
2022/06/04 02:59:28;;;;;;;9.35;3.33;;;19.70;99.90;;;;;;6234052;23;20103;-67
2022/06/04 03:01:58;;;;;;;5.75;3.13;;;19.70;99.90;;;;;;6233109;23;20003;-67
2022/06/04 03:04:24;;;;;;;5.32;2.60;;;19.60;99.90;;;;;;6231714;23;20087;-67
2022/06/04 03:06:50;;;;;;;5.82;3.10;;;19.60;99.90;;;;;;6234657;23;20028;-69
2022/06/04 03:09:20;;;;;;;3.80;2.72;;;19.60;99.90;;;;;;6234430;23;20079;-68
2022/06/04 03:11:49;;;;;;;4.90;2.65;;;19.60;99.90;;;;;;6232903;23;20038;-69
2022/06/04 03:14:17;;;;;;;6.30;2.63;;;19.60;99.90;;;;;;6236724;23;20016;-68
2022/06/04 03:16:47;;;;;;;2.80;2.50;;;19.60;99.90;;;;;;6221572;23;20322;-68
2022/06/04 03:19:13;;;;;;;3.92;2.50;;;19.60;99.90;;;;;;6236859;23;20073;-68
2022/06/04 03:21:40;;;;;;;3.67;2.60;;;19.70;99.90;;;;;;6235431;23;20620;-68
2022/06/04 03:24:08;;;;;;;4.72;2.88;;;19.70;99.90;;;;;;6236785;23;19996;-68
2022/06/04 03:26:35;;;;;;;3.00;2.47;;;19.80;99.90;;;;;;6234615;23;20137;-68
2022/06/04 03:29:01;;;;;;;4.10;3.13;;;19.70;99.90;;;;;;6235556;23;20062;-69
2022/06/04 03:31:27;;;;;;;2.97;2.55;;;19.70;99.90;;;;;;6235060;23;20015;-67
2022/06/04 03:33:54;;;;;;;4.20;2.88;;;19.70;99.90;;;;;;6236003;23;20039;-68
2022/06/04 03:36:21;;;;;;;12.05;3.65;;;19.70;99.90;;;;;;6235885;23;20014;-68
2022/06/04 03:38:50;;;;;;;3.92;2.55;;;19.80;99.90;;;;;;6235591;23;20008;-68
2022/06/04 03:41:15;;;;;;;4.03;2.47;;;19.80;99.90;;;;;;6237411;23;20011;-68
2022/06/04 03:43:42;;;;;;;3.15;2.78;;;19.80;99.90;;;;;;6237408;23;20012;-68
2022/06/04 03:46:08;;;;;;;5.18;3.30;;;19.70;99.90;;;;;;6237491;23;20037;-68
2022/06/04 03:48:34;;;;;;;6.13;3.05;;;19.70;99.90;;;;;;6234950;23;20004;-68
2022/06/04 03:51:01;;;;;;;3.00;2.70;;;19.70;99.90;;;;;;6237796;23;20075;-68
2022/06/04 03:53:27;;;;;;;3.85;2.42;;;19.70;99.90;;;;;;6233291;23;20748;-67
2022/06/04 03:55:52;;;;;;;5.07;3.15;;;19.70;99.90;;;;;;6237644;23;20008;-68
2022/06/04 03:58:18;;;;;;;6.43;3.53;;;19.80;99.90;;;;;;6237218;23;20015;-68
2022/06/04 04:00:45;;;;;;;3.97;3.28;;;19.70;99.90;;;;;;6237647;23;20015;-68
2022/06/04 04:03:14;;;;;;;6.18;3.75;;;19.70;99.90;;;;;;6236794;23;20015;-68
2022/06/04 04:05:45;;;;;;;6.13;4.15;;;19.70;99.90;;;;;;6237262;23;20327;-68
2022/06/04 04:08:11;;;;;;;4.85;3.10;;;19.70;99.90;;;;;;6236146;23;20084;-68
2022/06/04 04:10:39;;;;;;;3.65;3.28;;;19.70;99.90;;;;;;6233845;23;20545;-68
2022/06/04 04:13:05;;;;;;;5.78;3.70;;;19.70;99.90;;;;;;6235224;23;20066;-67
2022/06/04 04:15:31;;;;;;;7.85;3.97;;;19.70;99.90;;;;;;6235476;23;20046;-67
2022/06/04 04:17:57;;;;;;;4.38;3.53;;;19.70;99.90;;;;;;6237633;23;20008;-68
2022/06/04 04:20:29;;;;;;;4.20;3.80;;;19.60;99.90;;;;;;6235479;23;20100;-68
2022/06/04 04:22:56;;;;;;;4.80;3.45;;;19.60;99.90;;;;;;6236220;23;20102;-68
2022/06/04 04:25:25;;;;;;;9.40;4.43;;;19.60;99.90;;;;;;6234654;23;20018;-68
2022/06/04 04:27:52;;;;;;;7.40;4.22;;;19.50;99.90;;;;;;6233618;23;20008;-68
2022/06/04 04:30:21;;;;;;;4.95;3.60;;;19.60;99.90;;;;;;6230703;23;20047;-70
2022/06/04 04:32:47;;;;;;;5.68;3.30;;;19.50;99.90;;;;;;6236836;23;20030;-68
2022/06/04 04:35:18;;;;;;;5.55;3.20;;;19.50;99.90;;;;;;6233181;23;20484;-68
2022/06/04 04:37:44;;;;;;;4.13;3.03;;;19.50;99.90;;;;;;6234872;23;20481;-67
2022/06/04 04:40:15;;;;;;;5.13;3.17;;;19.50;99.90;;;;;;6233824;23;20043;-68
2022/06/04 04:42:41;;;;;;;5.18;3.10;;;19.50;99.90;;;;;;6240016;23;20375;-67
2022/06/04 04:45:07;;;;;;;6.03;3.15;;;19.40;99.90;;;;;;6241839;23;20012;-68
2022/06/04 04:47:35;;;;;;;6.53;3.83;;;19.40;99.90;;;;;;6242858;23;20036;-67
2022/06/04 04:50:03;;;;;;;4.07;2.90;;;19.40;99.90;;;;;;6242188;23;20011;-67
2022/06/04 04:52:29;;;;;;;6.45;3.10;;;19.40;99.90;;;;;;6241907;23;20004;-67
2022/06/04 04:54:54;;;;;;;4.68;3.28;;;19.30;99.90;;;;;;6244005;23;20103;-67
2022/06/04 04:57:20;;;;;;;4.57;3.28;;;19.30;99.90;;;;;;6242326;23;20007;-67
2022/06/04 04:59:46;;;;;;;4.13;2.88;;;19.30;99.90;;;;;;6242888;23;20087;-67
2022/06/04 05:02:11;;;;;;;5.18;3.05;;;19.30;99.90;;;;;;6239891;23;20066;-68
2022/06/04 05:04:37;;;;;;;4.45;3.00;;;19.30;99.90;;;;;;6242341;23;20043;-68
2022/06/04 05:07:03;;;;;;;6.65;3.25;;;19.40;99.90;;;;;;6213102;23;20051;-68
2022/06/04 05:09:29;;;;;;;5.68;3.33;;;19.40;99.90;;;;;;6242173;23;20005;-68
2022/06/04 05:11:54;;;;;;;4.57;3.60;;;19.40;99.90;;;;;;6243444;23;20019;-67
2022/06/04 05:14:20;;;;;;;4.28;3.60;;;19.40;99.90;;;;;;6240572;23;20016;-67
2022/06/04 05:16:46;;;;;;;6.05;4.00;;;19.40;99.90;;;;;;6241566;23;20508;-67
2022/06/04 05:19:12;;;;;;;4.18;3.60;;;19.30;99.90;;;;;;6239830;23;20004;-67
2022/06/04 07:49:11;;;;;;;4.22;2.40;;;19.70;99.90;;;;;;5064230;28;20375;-80
2022/06/04 07:51:38;;;;;;;4.57;2.67;;;20.00;99.90;;;;;;5064953;28;20028;-78
2022/06/04 07:54:07;;;;;;;5.20;2.67;;;19.90;99.90;;;;;;5075710;28;20052;-80
2022/06/04 07:56:32;;;;;;;3.70;2.60;;;19.90;99.90;;;;;;5061789;28;20342;-82
2022/06/04 07:58:58;;;;;;;4.53;2.20;;;19.90;99.90;;;;;;5068520;28;20044;-73
2022/06/04 08:01:24;;;;;;;3.20;2.60;;;19.80;99.90;;;;;;5072012;28;20028;-73
2022/06/04 08:03:51;;;;;;;4.63;2.83;;;19.80;99.90;;;;;;5073861;28;20606;-74
2022/06/04 08:06:17;;;;;;;5.13;2.40;;;19.80;99.90;;;;;;5065958;28;20024;-73
2022/06/04 08:08:46;;;;;;;4.97;3.08;;;19.90;99.90;;;;;;5069039;28;20572;-73
2022/06/04 08:13:56;;;;;;;3.67;2.40;;;19.80;99.90;;;;;;5068747;28;20043;-73
2022/06/04 08:16:22;;;;;;;7.13;2.72;;;19.80;99.90;;;;;;5069141;28;20020;-73
2022/06/04 08:18:48;;;;;;;12.35;2.47;;;19.80;99.90;;;;;;5057257;28;20467;-72
2022/06/04 08:21:14;;;;;;;5.13;2.50;;;19.80;99.90;;;;;;5066879;28;20400;-73
2022/06/04 08:23:40;;;;;;;4.18;2.55;;;19.80;99.90;;;;;;5068596;28;20037;-74
2022/06/04 08:26:09;;;;;;;4.90;2.35;;;19.90;99.90;;;;;;5071336;28;20036;-74
2022/06/04 08:28:35;;;;;;;5.35;2.25;;;19.90;99.90;;;;;;5067759;28;20108;-74
2022/06/04 08:31:10;;;;;;;5.13;2.20;;;19.90;99.90;;;;;;5066941;28;20041;-74
2022/06/04 08:33:37;;;;;;;6.35;2.40;;;19.90;99.90;;;;;;5066147;28;20041;-74
2022/06/04 08:36:05;;;;;;;5.80;2.30;;;19.90;99.90;;;;;;5064374;28;20017;-75
2022/06/04 08:38:31;;;;;;;2.63;1.90;;;20.00;99.90;;;;;;5061302;28;20041;-75
2022/06/04 08:40:59;;;;;;;3.72;2.70;;;20.00;99.90;;;;;;5049001;28;20040;-74
2022/06/04 08:43:46;;;;;;;3.60;2.45;;;20.00;99.90;;;;;;5049235;28;20119;-73
2022/06/04 08:46:35;;;;;;;3.65;1.90;;;20.00;99.90;;;;;;5044680;28;20029;-73
2022/06/04 08:49:13;;;;;;;3.13;2.03;;;20.00;99.90;;;;;;5041129;28;20504;-73
2022/06/04 08:51:39;;;;;;;2.28;1.60;;;20.00;99.90;;;;;;5039096;28;20094;-74
2022/06/04 08:59:59;;;;;;;1.88;1.33;;;20.00;99.90;;;;;;5041193;28;20055;-72
2022/06/04 09:02:57;;;;;;;1.83;1.50;;;20.00;99.90;;;;;;5037043;28;20025;-72
2022/06/04 09:05:59;;;;;;;2.05;1.60;;;20.00;99.90;;;;;;5040285;28;20075;-73
2022/06/04 09:08:32;;;;;;;;;;;20.00;99.90;;;;;;5031411;28;20029;-73
2022/06/04 09:11:01;;;;;;;3.58;2.30;;;20.00;99.90;;;;;;5040940;28;19913;-73
2022/06/04 09:14:07;;;;;;;2.72;2.00;;;20.10;99.90;;;;;;5034721;28;20488;-73
2022/06/04 09:16:37;;;;;;;4.05;1.95;;;20.00;99.90;;;;;;5036977;28;20059;-72
2022/06/04 09:19:12;;;;;;;3.03;1.70;;;20.10;99.90;;;;;;5032925;28;20043;-73
2022/06/04 09:21:40;;;;;;;2.00;1.40;;;20.10;99.90;;;;;;5033664;28;20103;-72
2022/06/04 09:24:06;;;;;;;1.65;1.42;;;20.10;99.90;;;;;;5037716;28;20036;-73
2022/06/04 09:26:51;;;;;;;1.77;1.38;;;20.10;99.90;;;;;;5037888;28;20029;-73
2022/06/04 09:29:51;;;;;;;2.20;1.40;;;20.20;99.90;;;;;;5034050;28;20032;-73
2022/06/04 09:32:27;;;;;;;4.05;1.60;;;20.20;99.90;;;;;;5038461;28;20029;-72
2022/06/04 09:34:55;;;;;;;49.15;4.35;;;20.20;99.90;;;;;;5039525;28;20488;-73
2022/06/04 09:37:20;;;;;;;6.82;1.52;;;20.30;99.90;;;;;;5029078;28;20036;-73
2022/06/04 09:39:59;;;;;;;3.08;1.40;;;20.30;99.90;;;;;;5016921;28;20072;-74
2022/06/04 09:42:31;;;;;;;1.25;1.15;;;20.30;99.90;;;;;;5016481;28;20037;-75
2022/06/04 09:45:00;;;;;;;2.13;1.30;;;20.40;99.90;;;;;;5030768;28;20033;-74
2022/06/04 09:47:44;;;;;;;1.20;1.10;;;20.40;99.90;;;;;;5033892;28;22008;-74
2022/06/04 09:50:37;;;;;;;4.82;1.85;;;20.40;99.90;;;;;;5036742;28;20096;-82
2022/06/04 09:53:12;;;;;;;2.88;1.23;;;20.30;99.90;;;;;;5036597;28;20108;-82
2022/06/04 09:55:44;;;;;;;1.27;1.13;;;20.30;99.90;;;;;;5036302;28;20035;-83
2022/06/04 09:58:20;;;;;;;;;;;20.40;99.90;;;;;;5021510;28;20033;-82
2022/06/04 10:01:08;;;;;;;1.77;1.08;;;20.40;99.90;;;;;;5021073;28;19913;-83
2022/06/04 10:03:37;;;;;;;1.30;1.20;;;20.50;99.90;;;;;;5035380;28;20380;-82
2022/06/04 10:06:09;;;;;;;1.83;1.60;;;20.40;99.90;;;;;;5033990;28;20045;-83
2022/06/04 10:11:24;;;;;;;3.83;2.13;;;20.20;99.90;;;;;;5029732;28;20102;-83
2022/06/04 10:13:52;;;;;;;1.88;1.77;;;20.10;99.90;;;;;;5034524;28;20037;-83
2022/06/04 10:16:25;;;;;;;2.50;2.30;;;20.00;99.90;;;;;;5041009;28;20017;-83
2022/06/04 10:19:00;;;;;;;1.98;1.88;;;19.90;99.90;;;;;;5031996;28;20044;-83
2022/06/04 10:21:35;;;;;;;4.45;2.30;;;19.90;99.90;;;;;;5040963;28;20298;-82
2022/06/04 10:24:05;;;;;;;2.13;1.92;;;20.00;99.90;;;;;;5040189;28;20025;-84
2022/06/04 10:26:56;;;;;;;3.15;1.67;;;20.10;99.90;;;;;;5040582;28;20059;-83
2022/06/04 10:29:49;;;;;;;3.08;1.50;;;20.10;99.90;;;;;;5031385;28;20036;-83
2022/06/04 10:32:29;;;;;;;4.00;1.95;;;20.20;99.90;;;;;;5033291;28;20028;-82
2022/06/04 10:35:26;;;;;;;2.00;1.90;;;20.20;99.90;;;;;;5030291;28;20318;-82
2022/06/04 10:38:27;;;;;;;2.25;2.05;;;20.10;99.90;;;;;;5038144;28;20048;-81
2022/06/04 10:41:26;;;;;;;2.92;1.92;;;20.10;99.90;;;;;;5030535;28;20449;-82
2022/06/04 10:44:30;;;;;;;2.08;1.88;;;20.10;99.90;;;;;;5033507;28;20032;-79
2022/06/04 10:47:26;;;;;;;2.33;2.10;;;20.10;99.90;;;;;;5038529;28;20057;-78
2022/06/04 10:50:02;;;;;;;2.53;2.33;;;20.20;99.90;;;;;;5033732;28;20033;-78
2022/06/04 10:52:44;;;;;;;2.60;2.20;;;20.20;99.90;;;;;;5033091;28;20074;-78
2022/06/04 10:55:44;;;;;;;2.72;2.42;;;20.20;99.90;;;;;;5036835;28;20142;-78
2022/06/04 10:58:21;;;;;;;2.80;2.58;;;20.20;99.90;;;;;;5029757;28;20041;-80
2022/06/04 11:01:29;;;;;;;2.72;2.50;;;20.30;99.90;;;;;;5032297;28;20037;-80
2022/06/04 11:04:07;;;;;;;3.25;2.50;;;20.30;99.90;;;;;;5028451;28;20032;-77
2022/06/04 11:06:51;;;;;;;2.55;2.35;;;20.40;99.90;;;;;;5021254;28;21223;-78
2022/06/04 11:09:35;;;;;;;3.13;2.55;;;20.40;99.90;;;;;;5030236;28;20037;-78
2022/06/04 11:12:16;;;;;;;3.67;2.67;;;20.30;99.90;;;;;;5031041;28;20061;-78
2022/06/04 11:14:56;;;;;;;3.17;2.70;;;20.40;99.90;;;;;;5020880;28;20705;-79
2022/06/04 11:17:29;;;;;;;3.60;3.30;;;20.40;99.90;;;;;;5024090;28;20631;-78
2022/06/04 11:20:09;;;;;;;3.30;2.92;;;20.30;99.90;;;;;;5035685;28;20243;-78
2022/06/04 11:22:42;;;;;;;8.93;3.20;;;20.30;99.90;;;;;;5026864;28;20036;-77
2022/06/04 11:25:30;;;;;;;2.92;2.70;;;20.40;99.90;;;;;;5005899;28;20043;-78
2022/06/04 11:28:09;;;;;;;3.35;3.00;;;20.50;99.90;;;;;;5016119;28;20275;-77
2022/06/04 11:30:53;;;;;;;4.38;2.75;;;20.50;99.90;;;;;;5034229;28;20492;-77
2022/06/04 11:33:37;;;;;;;2.85;2.65;;;20.60;99.90;;;;;;5035333;28;20033;-78
2022/06/04 11:36:18;;;;;;;2.75;2.55;;;20.60;99.90;;;;;;5037797;28;20025;-78
2022/06/04 11:39:22;;;;;;;2.60;2.40;;;20.70;99.90;;;;;;5038164;28;20050;-78
2022/06/04 11:42:06;;;;;;;3.55;2.88;;;21.00;99.90;;;;;;5036246;28;20504;-78
2022/06/04 11:44:50;;;;;;;3.28;2.95;;;21.00;99.90;;;;;;5039707;28;20037;-78
2022/06/04 11:48:00;;;;;;;3.15;2.50;;;21.10;99.90;;;;;;5034976;28;20068;-78
2022/06/04 11:50:30;;;;;;;3.40;3.10;;;21.20;99.90;;;;;;4993741;28;20033;-79
2022/06/04 11:53:17;;;;;;;2.55;2.35;;;21.30;99.90;;;;;;5039835;28;20111;-80
2022/06/04 11:55:53;;;;;;;2.38;2.03;;;21.30;99.90;;;;;;5042512;28;20064;-80
2022/06/04 11:58:26;;;;;;;2.72;2.53;;;21.30;99.90;;;;;;5036683;28;20047;-79
2022/06/04 12:00:57;;;;;;;3.25;2.40;;;21.50;99.90;;;;;;5038775;28;20021;-78
2022/06/04 12:03:32;;;;;;;2.78;2.13;;;21.60;99.90;;;;;;5033193;28;20051;-79
2022/06/04 12:06:04;;;;;;;2.30;1.90;;;21.70;99.90;;;;;;5040181;28;20091;-81
2022/06/04 12:08:36;;;;;;;4.45;2.25;;;21.70;99.90;;;;;;5040608;28;20881;-81
2022/06/04 12:11:36;;;;;;;2.38;2.25;;;21.70;99.90;;;;;;5041952;28;20041;-81
2022/06/04 12:14:02;;;;;;;2.53;2.33;;;21.70;99.90;;;;;;5036513;28;20138;-80
2022/06/04 12:16:45;;;;;;;3.20;1.98;;;21.80;99.90;;;;;;5035377;28;20056;-79
2022/06/04 12:25:46;;;;;;;1.70;1.60;;;22.20;99.90;;;;;;5042839;28;20553;-80
2022/06/04 12:28:41;;;;;;;2.45;2.13;;;22.30;99.90;;;;;;5039317;28;20025;-78
2022/06/04 12:31:07;;;;;;;3.63;1.63;;;22.50;99.90;;;;;;5038310;28;20040;-80
2022/06/04 12:33:41;;;;;;;2.08;1.42;;;22.50;99.90;;;;;;5041094;28;20120;-79
2022/06/04 12:36:10;;;;;;;1.88;1.55;;;22.60;99.90;;;;;;5042038;28;20037;-80
2022/06/04 12:38:39;;;;;;;1.67;1.55;;;22.60;99.90;;;;;;5043807;28;20053;-79
2022/06/04 12:41:16;;;;;;;2.80;1.77;;;22.70;99.90;;;;;;5039812;28;20100;-77
2022/06/04 12:43:48;;;;;;;6.15;2.00;;;22.80;99.90;;;;;;5039569;28;21353;-77
2022/06/04 12:46:22;;;;;;;1.52;1.42;;;22.90;99.90;;;;;;5037756;28;20052;-76
2022/06/04 12:49:25;;;;;;;1.63;1.45;;;23.00;99.90;;;;;;5040076;28;20448;-77
2022/06/04 12:52:04;;;;;;;2.15;1.40;;;23.00;99.90;;;;;;5034753;28;20111;-79
2022/06/04 12:54:49;;;;;;;1.58;1.48;;;23.10;99.90;;;;;;5040868;28;20013;-78
2022/06/04 12:57:44;;;;;;;1.90;1.33;;;23.20;99.90;;;;;;5041426;28;20025;-80
2022/06/04 13:00:10;;;;;;;1.70;1.60;;;23.40;99.90;;;;;;5040046;28;20384;-73
2022/06/04 13:02:42;;;;;;;3.47;2.00;;;23.50;99.90;;;;;;5037386;28;20039;-74
2022/06/04 13:05:12;;;;;;;1.60;1.50;;;23.40;99.90;;;;;;5038834;28;20108;-76
2022/06/04 13:07:49;;;;;;;1.73;1.50;;;23.50;99.90;;;;;;5027056;28;20059;-73
2022/06/04 13:10:22;;;;;;;1.70;1.60;;;23.70;99.90;;;;;;5037634;28;20113;-72
2022/06/04 13:13:19;;;;;;;2.72;1.35;;;23.70;99.90;;;;;;5038578;28;20460;-72
2022/06/04 13:15:58;;;;;;;5.57;1.77;;;23.50;99.90;;;;;;5040312;28;20021;-72
2022/06/04 13:18:37;;;;;;;3.03;1.50;;;23.40;99.90;;;;;;5033502;28;20037;-75
2022/06/04 13:21:10;;;;;;;2.47;1.30;;;23.60;99.90;;;;;;5040764;28;20031;-76
2022/06/04 13:23:55;;;;;;;5.28;1.52;;;23.70;99.90;;;;;;5041435;28;20040;-74
2022/06/04 13:26:42;;;;;;;3.15;1.60;;;23.80;99.90;;;;;;5034511;28;20016;-79
2022/06/04 13:29:31;;;;;;;3.35;1.90;;;24.00;99.90;;;;;;5035821;28;20104;-81
2022/06/04 13:32:04;;;;;;;1.73;1.20;;;24.20;99.90;;;;;;5041497;28;20025;-77
2022/06/04 13:34:33;;;;;;;1.95;1.63;;;24.30;99.90;;;;;;5040351;28;20099;-77
2022/06/04 13:37:06;;;;;;;3.25;1.33;;;24.20;99.90;;;;;;5038594;28;20733;-79
2022/06/04 13:39:34;;;;;;;1.80;1.63;;;23.90;99.90;;;;;;5038907;28;20538;-76
2022/06/04 13:42:11;;;;;;;4.22;1.70;;;23.70;99.90;;;;;;5040245;28;20031;-81
2022/06/04 13:44:59;;;;;;;4.22;1.50;;;23.80;99.90;;;;;;5033821;28;20264;-73
2022/06/04 13:47:36;;;;;;;3.28;1.40;;;24.00;99.90;;;;;;5034083;28;20404;-80
2022/06/04 13:50:10;;;;;;;2.30;1.60;;;24.00;99.90;;;;;;5037879;28;20032;-80
2022/06/04 13:52:47;;;;;;;1.50;1.40;;;23.90;99.90;;;;;;5041147;28;20143;-83
2022/06/04 13:55:57;;;;;;;2.60;1.45;;;24.00;99.90;;;;;;5040462;28;20044;-77
2022/06/04 13:58:28;;;;;;;6.05;1.75;;;24.10;99.90;;;;;;5032698;28;20123;-78
2022/06/04 14:01:09;;;;;;;2.60;1.30;;;24.10;99.90;;;;;;5039126;28;20067;-79
2022/06/04 14:03:40;;;;;;;5.95;2.40;;;24.00;99.90;;;;;;5015123;28;20724;-81
2022/06/04 14:06:07;;;;;;;2.40;1.50;;;24.10;99.90;;;;;;5032301;28;20055;-83
2022/06/04 14:08:49;;;;;;;1.70;1.60;;;24.20;99.90;;;;;;5039534;28;20040;-78
2022/06/04 14:11:22;;;;;;;8.45;2.28;;;24.20;99.90;;;;;;5038121;28;20532;-77
2022/06/04 14:14:06;;;;;;;1.73;1.60;;;24.10;99.90;;;;;;5039359;28;20029;-83
2022/06/04 14:16:46;;;;;;;2.13;1.67;;;24.00;99.90;;;;;;5034678;28;20029;-85
2022/06/04 14:19:45;;;;;;;1.92;1.73;;;24.10;99.90;;;;;;5041869;28;20111;-85
2022/06/04 14:22:17;;;;;;;3.00;1.58;;;24.20;99.90;;;;;;5042028;28;20037;-80
2022/06/04 14:25:03;;;;;;;3.92;1.70;;;24.30;99.90;;;;;;5040401;28;20505;-81
2022/06/04 14:27:34;;;;;;;1.80;1.50;;;24.40;99.90;;;;;;5036015;28;20017;-83
2022/06/04 14:30:28;;;;;;;5.18;1.88;;;24.40;99.90;;;;;;5036115;28;20033;-77
2022/06/04 14:32:55;;;;;;;7.05;1.60;;;24.40;99.90;;;;;;5040987;28;21307;-84
2022/06/04 14:35:36;;;;;;;1.48;1.23;;;24.40;99.90;;;;;;5033694;28;20041;-80
2022/06/04 14:38:16;;;;;;;3.40;1.65;;;24.50;99.90;;;;;;5041844;28;20051;-76
2022/06/04 14:41:06;;;;;;;1.88;1.50;;;24.60;99.90;;;;;;5033517;28;20097;-76
2022/06/04 14:43:59;;;;;;;4.18;1.40;;;24.50;99.90;;;;;;5038053;28;20393;-75
2022/06/04 14:46:57;;;;;;;5.72;1.73;;;24.50;99.90;;;;;;5031206;28;20104;-80
2022/06/04 14:49:23;;;;;;;1.48;1.38;;;24.20;99.90;;;;;;5030193;28;20037;-79
2022/06/04 14:52:09;;;;;;;5.32;1.40;;;24.10;99.90;;;;;;5039887;28;20627;-77
2022/06/04 14:54:37;;;;;;;3.40;1.52;;;23.90;99.90;;;;;;5040776;28;20117;-77
2022/06/04 14:57:41;;;;;;;2.88;2.65;;;23.90;99.90;;;;;;5040195;28;21105;-77
2022/06/04 15:00:25;;;;;;;1.33;1.00;;;23.90;99.90;;;;;;5018056;28;20147;-81
2022/06/04 15:03:28;;;;;;;2.67;1.50;;;24.00;99.90;;;;;;5035405;28;20108;-85
2022/06/04 15:05:59;;;;;;;1.77;1.15;;;24.10;99.90;;;;;;5017338;28;20560;-76
2022/06/04 15:08:36;;;;;;;4.22;1.42;;;24.30;99.90;;;;;;5040814;28;20057;-76
2022/06/04 15:11:05;;;;;;;2.33;1.50;;;24.50;99.90;;;;;;5038781;28;20044;-73
2022/06/04 15:13:52;;;;;;;1.92;1.40;;;24.50;99.90;;;;;;5040371;28;20128;-72
2022/06/04 15:16:53;;;;;;;1.30;1.20;;;24.50;99.90;;;;;;5041470;28;20587;-76
2022/06/04 15:19:37;;;;;;;1.17;1.10;;;24.50;99.90;;;;;;4920202;29;20423;-75
2022/06/04 15:22:12;;;;;;;2.28;1.40;;;24.50;99.90;;;;;;5020790;28;20033;-74
2022/06/04 15:24:44;;;;;;;7.60;1.80;;;24.70;99.90;;;;;;5037457;28;20029;-75
2022/06/04 15:27:35;;;;;;;2.08;1.13;;;24.80;99.90;;;;;;5039386;28;20140;-74
2022/06/04 15:36:13;;;;;;;2.90;1.50;;;24.60;99.90;;;;;;5036101;28;20043;-72
2022/06/04 15:38:59;;;;;;;2.40;1.30;;;24.50;99.90;;;;;;5033826;28;20435;-72
2022/06/04 15:41:32;;;;;;;2.15;1.35;;;24.60;99.90;;;;;;5035959;28;20045;-76
2022/06/04 15:44:11;;;;;;;2.08;1.42;;;24.50;99.90;;;;;;5041598;28;20021;-77
2022/06/04 15:46:41;;;;;;;2.85;1.00;;;24.70;99.90;;;;;;5039520;28;21263;-76
2022/06/04 15:55:39;;;;;;;3.70;1.48;;;25.10;99.90;;;;;;5030276;28;20102;-76
2022/06/04 15:58:15;;;;;;;5.22;1.27;;;25.20;99.90;;;;;;5035178;28;20041;-76
2022/06/04 16:00:50;;;;;;;3.22;1.10;;;25.30;99.90;;;;;;5045095;28;20056;-77
2022/06/04 16:03:27;;;;;;;1.70;1.00;;;25.30;99.90;;;;;;5039755;28;20037;-76
2022/06/04 16:06:03;;;;;;;3.47;1.13;;;25.30;99.90;;;;;;5038573;28;20111;-76
2022/06/04 16:08:29;;;;;;;12.52;1.70;;;25.30;99.90;;;;;;5039346;28;20060;-77
2022/06/04 16:11:06;;;;;;;2.75;1.20;;;25.30;99.90;;;;;;5038046;28;20033;-81
2022/06/04 16:13:43;;;;;;;3.13;1.20;;;25.30;99.90;;;;;;5031689;28;20029;-78
2022/06/04 16:16:30;;;;;;;3.60;1.23;;;25.30;99.90;;;;;;5032555;28;20048;-78
2022/06/04 16:19:02;;;;;;;8.20;1.30;;;25.40;99.90;;;;;;5037794;28;20048;-78
2022/06/04 16:21:28;;;;;;;1.83;1.35;;;25.50;99.90;;;;;;5039706;28;20112;-77
2022/06/04 16:24:12;;;;;;;4.25;1.45;;;25.40;99.90;;;;;;5041574;28;20066;-75
2022/06/04 16:26:50;;;;;;;1.20;0.95;;;25.40;99.90;;;;;;5038744;28;20632;-75
2022/06/04 16:29:29;;;;;;;2.75;1.33;;;25.40;99.90;;;;;;5030793;28;20025;-75
2022/06/04 16:32:06;;;;;;;3.83;0.93;;;25.40;99.90;;;;;;5033096;28;20021;-75
2022/06/04 16:34:47;;;;;;;1.65;1.20;;;25.40;99.90;;;;;;5039608;28;20526;-76
2022/06/04 16:37:34;;;;;;;3.88;1.05;;;25.30;99.90;;;;;;5032767;28;20167;-75